Time,TemperatureF,DewpointF,PressureIn,WindDirection,WindDirectionDegrees,WindSpeedMPH,WindSpeedGustMPH,Humidity,HourlyPrecipIn,Conditions,Clouds,dailyrainin,SoftwareType,DateUTC
2013-12-03 00:00:00,48.4,36.0,29.85,ENE,74,0.0,17.0,62,0.00,CLR,,0.00,WeatherDisplay:10.37,2013-12-03 05:00:00,
2013-12-03 00:05:00,48.4,36.0,29.85,ENE,74,0.0,17.0,62,0.00,CLR,,0.00,WeatherDisplay:10.37,2013-12-03 05:05:00,
2013-12-03 00:10:00,48.4,36.0,29.85,ENE,74,0.0,17.0,62,0.00,CLR,,0.00,WeatherDisplay:10.37,2013-12-03 05:10:00,
2013-12-03 00:15:00,48.4,36.0,29.85,ENE,74,0.0,17.0,62,0.00,CLR,,0.00,WeatherDisplay:10.37,2013-12-03 05:15:00,
2013-12-03 00:20:00,48.2,35.8,29.85,ENE,74,0.0,17.0,62,0.00,CLR,,0.00,WeatherDisplay:10.37,2013-12-03 05:20:00,
2013-12-03 00:25:00,48.2,35.8,29.85,ENE,74,0.0,17.0,62,0.00,CLR,,0.00,WeatherDisplay:10.37,2013-12-03 05:25:00,
2013-12-03 00:30:00,48.2,36.2,29.85,ENE,74,0.0,17.0,63,0.00,CLR,,0.00,WeatherDisplay:10.37,2013-12-03 05:30:00,
2013-12-03 00:40:00,48.0,36.0,29.85,ENE,74,0.0,17.0,63,0.00,CLR,,0.00,WeatherDisplay:10.37,2013-12-03 05:40:00,
2013-12-03 00:45:00,48.0,36.0,29.85,ENE,74,0.0,17.0,63,0.00,CLR,,0.00,WeatherDisplay:10.37,2013-12-03 05:45:00,
2013-12-03 00:50:00,47.8,35.8,29.85,ENE,74,0.0,17.0,63,0.00,CLR,,0.00,WeatherDisplay:10.37,2013-12-03 05:50:00,
2013-12-03 00:55:00,47.8,35.8,29.85,ENE,74,0.0,17.0,63,0.00,CLR,,0.00,WeatherDisplay:10.37,2013-12-03 05:55:00,
2013-12-03 01:00:00,47.7,35.7,29.85,ENE,74,0.0,17.0,63,0.00,CLR,,0.00,WeatherDisplay:10.37,2013-12-03 06:00:00,
2013-12-03 01:05:00,47.7,36.1,29.85,ENE,74,0.0,17.0,64,0.00,CLR,,0.00,WeatherDisplay:10.37,2013-12-03 06:05:00,
2013-12-03 01:10:00,47.7,36.1,29.85,ENE,74,0.0,17.0,64,0.00,CLR,,0.00,WeatherDisplay:10.37,2013-12-03 06:10:00,
2013-12-03 01:15:00,47.5,35.9,29.85,ENE,74,0.0,17.0,64,0.00,CLR,,0.00,WeatherDisplay:10.37,2013-12-03 06:15:00,
2013-12-03 01:20:00,47.5,35.9,29.85,ENE,74,0.0,17.0,64,0.00,CLR,,0.00,WeatherDisplay:10.37,2013-12-03 06:20:00,
2013-12-03 01:25:00,47.5,35.9,29.85,ENE,74,0.0,17.0,64,0.00,CLR,,0.00,WeatherDisplay:10.37,2013-12-03 06:25:00,
2013-12-03 01:30:00,47.3,35.7,29.85,ENE,74,0.0,17.0,64,0.00,CLR,,0.00,WeatherDisplay:10.37,2013-12-03 06:30:00,
2013-12-03 01:35:00,47.3,36.1,29.85,ENE,74,0.0,17.0,65,0.00,CLR,,0.00,WeatherDisplay:10.37,2013-12-03 06:35:00,
2013-12-03 01:40:00,47.1,36.0,29.85,ENE,74,0.0,17.0,65,0.00,CLR,,0.00,WeatherDisplay:10.37,2013-12-03 06:40:00,
2013-12-03 01:45:00,46.9,35.8,29.88,ENE,74,0.0,17.0,65,0.00,CLR,,0.00,WeatherDisplay:10.37,2013-12-03 06:45:00,
2013-12-03 01:50:00,46.8,35.7,29.88,ENE,74,0.0,17.0,65,0.00,CLR,,0.00,WeatherDisplay:10.37,2013-12-03 06:50:00,
2013-12-03 01:55:00,46.6,35.4,29.88,ENE,74,0.0,17.0,65,0.00,CLR,,0.00,WeatherDisplay:10.37,2013-12-03 06:55:00,
2013-12-03 02:00:00,46.4,35.3,29.88,ENE,74,0.0,17.0,65,0.00,CLR,,0.00,WeatherDisplay:10.37,2013-12-03 07:00:00,
2013-12-03 02:05:00,46.2,35.1,29.88,ENE,74,0.0,17.0,65,0.00,CLR,,0.00,WeatherDisplay:10.37,2013-12-03 07:05:00,
2013-12-03 02:10:00,46.0,34.9,29.88,ENE,74,0.0,17.0,65,0.00,CLR,,0.00,WeatherDisplay:10.37,2013-12-03 07:10:00,
2013-12-03 02:15:00,45.7,34.6,29.88,ENE,74,0.0,17.0,65,0.00,CLR,,0.00,WeatherDisplay:10.37,2013-12-03 07:15:00,
2013-12-03 02:20:00,45.7,34.6,29.88,ENE,74,0.0,17.0,65,0.00,CLR,,0.00,WeatherDisplay:10.37,2013-12-03 07:20:00,
2013-12-03 02:25:00,45.5,34.4,29.88,ENE,74,0.0,17.0,65,0.00,CLR,,0.00,WeatherDisplay:10.37,2013-12-03 07:25:00,
2013-12-03 02:30:00,45.3,34.6,29.88,ENE,74,0.0,17.0,66,0.00,CLR,,0.00,WeatherDisplay:10.37,2013-12-03 07:30:00,
2013-12-03 02:35:00,45.2,34.5,29.88,ENE,74,0.0,17.0,66,0.00,CLR,,0.00,WeatherDisplay:10.37,2013-12-03 07:35:00,
2013-12-03 02:40:00,45.1,34.5,29.88,ENE,74,0.0,17.0,66,0.00,CLR,,0.00,WeatherDisplay:10.37,2013-12-03 07:40:00,
2013-12-03 02:45:00,45.1,34.8,29.88,ENE,74,0.0,17.0,67,0.00,CLR,,0.00,WeatherDisplay:10.37,2013-12-03 07:45:00,
2013-12-03 02:50:00,45.0,34.7,29.88,ENE,74,0.0,17.0,67,0.00,CLR,,0.00,WeatherDisplay:10.37,2013-12-03 07:50:00,
2013-12-03 02:55:00,45.0,34.7,29.88,ENE,74,0.0,17.0,67,0.00,CLR,,0.00,WeatherDisplay:10.37,2013-12-03 07:55:00,
2013-12-03 03:00:00,45.0,34.7,29.88,ENE,74,0.0,17.0,67,0.00,CLR,,0.00,WeatherDisplay:10.37,2013-12-03 08:00:00,
2013-12-03 03:05:00,45.1,35.1,29.88,ENE,74,0.0,17.0,68,0.00,CLR,,0.00,WeatherDisplay:10.37,2013-12-03 08:05:00,
2013-12-03 03:10:00,45.1,35.2,29.88,ENE,74,0.0,17.0,68,0.00,CLR,,0.00,WeatherDisplay:10.37,2013-12-03 08:10:00,
2013-12-03 03:15:00,45.1,35.2,29.88,ENE,74,0.0,17.0,68,0.00,CLR,,0.00,WeatherDisplay:10.37,2013-12-03 08:15:00,
2013-12-03 03:20:00,45.1,35.2,29.88,ENE,74,0.0,17.0,68,0.00,CLR,,0.00,WeatherDisplay:10.37,2013-12-03 08:20:00,
2013-12-03 03:25:00,45.1,35.2,29.88,ENE,74,0.0,17.0,68,0.00,CLR,,0.00,WeatherDisplay:10.37,2013-12-03 08:25:00,
2013-12-03 03:30:00,45.0,35.4,29.88,ENE,74,0.0,17.0,69,0.00,CLR,,0.00,WeatherDisplay:10.37,2013-12-03 08:30:00,
2013-12-03 03:35:00,45.0,35.4,29.88,ENE,74,0.0,17.0,69,0.00,CLR,,0.00,WeatherDisplay:10.37,2013-12-03 08:35:00,
2013-12-03 03:40:00,45.0,35.4,29.88,ENE,74,0.0,17.0,69,0.00,CLR,,0.00,WeatherDisplay:10.37,2013-12-03 08:40:00,
2013-12-03 03:45:00,44.8,35.2,29.88,ENE,74,0.0,17.0,69,0.00,CLR,,0.00,WeatherDisplay:10.37,2013-12-03 08:45:00,
2013-12-03 03:50:00,44.6,35.1,29.88,ENE,74,0.0,17.0,69,0.00,CLR,,0.00,WeatherDisplay:10.37,2013-12-03 08:50:00,
2013-12-03 03:55:00,44.6,35.1,29.88,ENE,74,0.0,17.0,69,0.00,CLR,,0.00,WeatherDisplay:10.37,2013-12-03 08:55:00,
2013-12-03 04:00:00,44.6,35.4,29.88,ENE,74,0.0,17.0,70,0.00,CLR,,0.00,WeatherDisplay:10.37,2013-12-03 09:00:00,
2013-12-03 04:05:00,44.4,35.2,29.88,ENE,74,0.0,17.0,70,0.00,CLR,,0.00,WeatherDisplay:10.37,2013-12-03 09:05:00,
2013-12-03 04:10:00,44.4,35.2,29.88,ENE,74,0.0,17.0,70,0.00,CLR,,0.00,WeatherDisplay:10.37,2013-12-03 09:10:00,
2013-12-03 04:15:00,44.2,35.1,29.88,ENE,74,0.0,17.0,70,0.00,CLR,,0.00,WeatherDisplay:10.37,2013-12-03 09:15:00,
2013-12-03 04:20:00,44.2,35.1,29.88,ENE,74,0.0,17.0,70,0.00,CLR,,0.00,WeatherDisplay:10.37,2013-12-03 09:20:00,
2013-12-03 04:25:00,44.1,34.9,29.88,ENE,74,0.0,17.0,70,0.00,CLR,,0.00,WeatherDisplay:10.37,2013-12-03 09:25:00,
2013-12-03 04:30:00,44.1,34.9,29.88,ENE,74,0.0,17.0,70,0.00,CLR,,0.00,WeatherDisplay:10.37,2013-12-03 09:30:00,
2013-12-03 04:35:00,43.9,35.1,29.88,ENE,74,0.0,17.0,71,0.00,CLR,,0.00,WeatherDisplay:10.37,2013-12-03 09:35:00,
2013-12-03 04:40:00,44.1,35.3,29.88,ENE,74,0.0,17.0,71,0.00,CLR,,0.00,WeatherDisplay:10.37,2013-12-03 09:40:00,
2013-12-03 04:45:00,44.1,35.3,29.88,ENE,74,0.0,17.0,71,0.00,CLR,,0.00,WeatherDisplay:10.37,2013-12-03 09:45:00,
2013-12-03 04:50:00,44.1,35.3,29.88,ENE,74,0.0,17.0,71,0.00,CLR,,0.00,WeatherDisplay:10.37,2013-12-03 09:50:00,
2013-12-03 04:55:00,44.1,35.6,29.88,ENE,74,0.0,17.0,72,0.00,CLR,,0.00,WeatherDisplay:10.37,2013-12-03 09:55:00,
2013-12-03 05:00:00,44.2,35.8,29.88,ENE,74,0.0,17.0,72,0.00,CLR,,0.00,WeatherDisplay:10.37,2013-12-03 10:00:00,
2013-12-03 05:05:00,44.2,35.8,29.88,ENE,74,0.0,17.0,72,0.00,CLR,,0.00,WeatherDisplay:10.37,2013-12-03 10:05:00,
2013-12-03 05:10:00,44.4,36.3,29.88,ENE,74,0.0,17.0,73,0.00,CLR,,0.00,WeatherDisplay:10.37,2013-12-03 10:10:00,
2013-12-03 05:15:00,44.8,36.7,29.91,ENE,74,0.0,17.0,73,0.00,CLR,,0.00,WeatherDisplay:10.37,2013-12-03 10:15:00,
2013-12-03 05:20:00,45.0,37.2,29.91,ENE,74,0.0,17.0,74,0.00,CLR,,0.00,WeatherDisplay:10.37,2013-12-03 10:20:00,
2013-12-03 05:25:00,45.2,37.4,29.91,ENE,74,0.0,17.0,74,0.00,CLR,,0.00,WeatherDisplay:10.37,2013-12-03 10:25:00,
2013-12-03 05:30:00,45.5,37.7,29.91,ENE,74,0.0,17.0,74,0.00,CLR,,0.00,WeatherDisplay:10.37,2013-12-03 10:30:00,
2013-12-03 05:35:00,45.7,37.9,29.91,ENE,74,0.0,17.0,74,0.00,CLR,,0.00,WeatherDisplay:10.37,2013-12-03 10:35:00,
2013-12-03 05:40:00,45.9,38.4,29.91,ENE,74,0.0,17.0,75,0.00,CLR,,0.00,WeatherDisplay:10.37,2013-12-03 10:40:00,
2013-12-03 05:45:00,46.0,38.6,29.91,ENE,74,0.0,17.0,75,0.00,CLR,,0.00,WeatherDisplay:10.37,2013-12-03 10:45:00,
2013-12-03 05:50:00,46.4,38.9,29.91,ENE,74,0.0,17.0,75,0.00,CLR,,0.00,WeatherDisplay:10.37,2013-12-03 10:50:00,
2013-12-03 05:55:00,46.5,39.0,29.91,ENE,74,0.0,17.0,75,0.00,CLR,,0.00,WeatherDisplay:10.37,2013-12-03 10:55:00,
2013-12-03 06:00:00,46.8,39.6,29.94,ENE,74,0.0,17.0,76,0.00,CLR,,0.00,WeatherDisplay:10.37,2013-12-03 11:00:00,
2013-12-03 06:05:00,46.8,39.6,29.94,ENE,74,0.0,17.0,76,0.00,CLR,,0.00,WeatherDisplay:10.37,2013-12-03 11:05:00,
2013-12-03 06:10:00,46.9,39.8,29.94,ENE,74,0.0,17.0,76,0.00,CLR,,0.00,WeatherDisplay:10.37,2013-12-03 11:10:00,
2013-12-03 06:15:00,46.9,39.8,29.94,ENE,74,0.0,17.0,76,0.00,CLR,,0.00,WeatherDisplay:10.37,2013-12-03 11:15:00,
2013-12-03 06:20:00,47.1,39.9,29.94,ENE,74,0.0,17.0,76,0.00,CLR,,0.00,WeatherDisplay:10.37,2013-12-03 11:20:00,
2013-12-03 06:25:00,47.1,39.9,29.94,ENE,74,0.0,17.0,76,0.00,CLR,,0.00,WeatherDisplay:10.37,2013-12-03 11:25:00,
2013-12-03 06:30:00,47.1,39.9,29.97,ENE,74,0.0,17.0,76,0.00,CLR,,0.00,WeatherDisplay:10.37,2013-12-03 11:30:00,
2013-12-03 06:35:00,47.3,40.1,29.97,ENE,74,0.0,17.0,76,0.00,CLR,,0.00,WeatherDisplay:10.37,2013-12-03 11:35:00,
2013-12-03 06:40:00,47.3,40.1,29.97,ENE,74,0.0,17.0,76,0.00,CLR,,0.00,WeatherDisplay:10.37,2013-12-03 11:40:00,
2013-12-03 06:45:00,47.3,40.1,30.00,ENE,74,0.0,17.0,76,0.00,CLR,,0.00,WeatherDisplay:10.37,2013-12-03 11:45:00,
2013-12-03 06:50:00,47.3,40.1,30.00,ENE,74,0.0,17.0,76,0.00,CLR,,0.00,WeatherDisplay:10.37,2013-12-03 11:50:00,
2013-12-03 06:55:00,47.3,39.8,30.00,ENE,74,0.0,17.0,75,0.00,CLR,,0.00,WeatherDisplay:10.37,2013-12-03 11:55:00,
2013-12-03 07:00:00,47.3,39.8,29.97,ENE,74,0.0,17.0,75,0.00,CLR,,0.00,WeatherDisplay:10.37,2013-12-03 12:00:00,
2013-12-03 07:05:00,47.3,39.8,29.97,ENE,74,0.0,17.0,75,0.00,CLR,,0.00,WeatherDisplay:10.37,2013-12-03 12:05:00,
2013-12-03 07:10:00,47.3,40.1,29.97,ENE,74,0.0,17.0,76,0.00,CLR,,0.00,WeatherDisplay:10.37,2013-12-03 12:10:00,
2013-12-03 07:15:00,47.3,40.1,30.00,ENE,74,0.0,17.0,76,0.00,CLR,,0.00,WeatherDisplay:10.37,2013-12-03 12:15:00,
2013-12-03 07:20:00,47.3,40.1,30.00,ENE,74,0.0,17.0,76,0.00,CLR,,0.00,WeatherDisplay:10.37,2013-12-03 12:20:00,
2013-12-03 07:25:00,47.3,40.1,30.00,ENE,74,0.0,17.0,76,0.00,CLR,,0.00,WeatherDisplay:10.37,2013-12-03 12:25:00,
2013-12-03 07:30:00,47.5,40.3,30.06,ENE,74,0.0,17.0,76,0.00,CLR,,0.00,WeatherDisplay:10.37,2013-12-03 12:30:00,
2013-12-03 07:35:00,47.5,40.3,30.06,ENE,74,0.0,17.0,76,0.00,CLR,,0.00,WeatherDisplay:10.37,2013-12-03 12:35:00,
2013-12-03 07:40:00,47.5,40.3,30.06,ENE,74,0.0,17.0,76,0.00,CLR,,0.00,WeatherDisplay:10.37,2013-12-03 12:40:00,
2013-12-03 07:45:00,47.5,40.3,29.97,ENE,74,0.0,17.0,76,0.00,CLR,,0.00,WeatherDisplay:10.37,2013-12-03 12:45:00,
2013-12-03 07:50:00,47.7,40.5,29.97,ENE,74,0.0,17.0,76,0.00,CLR,,0.00,WeatherDisplay:10.37,2013-12-03 12:50:00,
2013-12-03 07:55:00,47.7,40.5,29.97,ENE,74,0.0,17.0,76,0.00,CLR,,0.00,WeatherDisplay:10.37,2013-12-03 12:55:00,
2013-12-03 08:00:00,47.7,40.5,30.00,ENE,74,0.0,17.0,76,0.00,CLR,,0.00,WeatherDisplay:10.37,2013-12-03 13:00:00,
2013-12-03 08:05:00,47.8,41.0,30.00,ENE,74,0.0,17.0,77,0.00,CLR,,0.00,WeatherDisplay:10.37,2013-12-03 13:05:00,
2013-12-03 08:10:00,48.0,41.2,30.00,ENE,74,0.0,17.0,77,0.00,CLR,,0.00,WeatherDisplay:10.37,2013-12-03 13:10:00,
2013-12-03 08:15:00,48.0,41.2,30.00,ENE,74,0.0,17.0,77,0.00,CLR,,0.00,WeatherDisplay:10.37,2013-12-03 13:15:00,
2013-12-03 08:20:00,48.2,41.3,30.00,ENE,74,0.0,17.0,77,0.00,CLR,,0.00,WeatherDisplay:10.37,2013-12-03 13:20:00,
2013-12-03 08:25:00,48.2,41.3,30.00,ENE,74,0.0,17.0,77,0.00,CLR,,0.00,WeatherDisplay:10.37,2013-12-03 13:25:00,
2013-12-03 08:30:00,48.4,41.5,30.00,ENE,74,0.0,17.0,77,0.00,CLR,,0.00,WeatherDisplay:10.37,2013-12-03 13:30:00,
2013-12-03 08:35:00,48.6,41.7,30.00,ENE,74,0.0,17.0,77,0.00,CLR,,0.00,WeatherDisplay:10.37,2013-12-03 13:35:00,
2013-12-03 08:40:00,48.9,42.0,30.00,ENE,74,0.0,17.0,77,0.00,CLR,,0.00,WeatherDisplay:10.37,2013-12-03 13:40:00,
2013-12-03 08:45:00,49.3,42.4,30.06,ENE,74,0.0,17.0,77,0.00,CLR,,0.00,WeatherDisplay:10.37,2013-12-03 13:45:00,
2013-12-03 08:50:00,49.6,42.7,30.06,ENE,74,0.0,17.0,77,0.00,CLR,,0.00,WeatherDisplay:10.37,2013-12-03 13:50:00,
2013-12-03 08:55:00,50.0,43.1,30.06,ENE,74,0.0,17.0,77,0.00,CLR,,0.00,WeatherDisplay:10.37,2013-12-03 13:55:00,
2013-12-03 09:00:00,50.2,43.3,30.06,ENE,74,0.0,17.0,77,0.00,CLR,,0.00,WeatherDisplay:10.37,2013-12-03 14:00:00,
2013-12-03 09:05:00,50.4,43.4,30.06,ENE,74,0.0,17.0,77,0.00,CLR,,0.00,WeatherDisplay:10.37,2013-12-03 14:05:00,
2013-12-03 09:10:00,50.5,43.6,30.06,ENE,74,0.0,17.0,77,0.00,CLR,,0.00,WeatherDisplay:10.37,2013-12-03 14:10:00,
2013-12-03 09:15:00,50.7,43.7,30.06,ENE,74,0.0,17.0,77,0.00,CLR,,0.00,WeatherDisplay:10.37,2013-12-03 14:15:00,
2013-12-03 09:20:00,50.7,43.8,30.06,ENE,74,0.0,17.0,77,0.00,CLR,,0.00,WeatherDisplay:10.37,2013-12-03 14:20:00,
2013-12-03 09:25:00,50.9,43.6,30.06,ENE,74,0.0,17.0,76,0.00,CLR,,0.00,WeatherDisplay:10.37,2013-12-03 14:25:00,
2013-12-03 09:30:00,51.1,44.1,30.03,ENE,74,0.0,17.0,77,0.00,CLR,,0.00,WeatherDisplay:10.37,2013-12-03 14:30:00,
2013-12-03 09:35:00,51.3,44.3,30.03,ENE,74,0.0,17.0,77,0.00,CLR,,0.00,WeatherDisplay:10.37,2013-12-03 14:35:00,
2013-12-03 09:40:00,51.6,44.6,30.03,ENE,74,0.0,17.0,77,0.00,CLR,,0.00,WeatherDisplay:10.37,2013-12-03 14:40:00,
2013-12-03 09:45:00,52.0,45.0,30.03,ENE,74,0.0,17.0,77,0.00,CLR,,0.00,WeatherDisplay:10.37,2013-12-03 14:45:00,
2013-12-03 09:50:00,52.3,45.3,30.03,ENE,74,0.0,17.0,77,0.00,CLR,,0.00,WeatherDisplay:10.37,2013-12-03 14:50:00,
2013-12-03 09:55:00,52.5,45.5,30.03,ENE,74,0.0,17.0,77,0.00,CLR,,0.00,WeatherDisplay:10.37,2013-12-03 14:55:00,
2013-12-03 10:00:00,53.1,46.0,30.03,ENE,74,0.0,17.0,77,0.00,CLR,,0.00,WeatherDisplay:10.37,2013-12-03 15:00:00,
2013-12-03 10:05:00,53.4,46.4,30.03,ENE,74,0.0,17.0,77,0.00,CLR,,0.00,WeatherDisplay:10.37,2013-12-03 15:05:00,
2013-12-03 10:10:00,53.6,46.6,30.03,ENE,74,0.0,17.0,77,0.00,CLR,,0.00,WeatherDisplay:10.37,2013-12-03 15:10:00,
2013-12-03 10:15:00,54.0,46.9,30.03,ENE,74,0.0,17.0,77,0.00,CLR,,0.00,WeatherDisplay:10.37,2013-12-03 15:15:00,
2013-12-03 10:20:00,54.1,47.1,30.03,ENE,74,0.0,17.0,77,0.00,CLR,,0.00,WeatherDisplay:10.37,2013-12-03 15:20:00,
2013-12-03 10:25:00,54.3,47.3,30.03,ENE,74,0.0,17.0,77,0.00,CLR,,0.00,WeatherDisplay:10.37,2013-12-03 15:25:00,
2013-12-03 10:30:00,54.7,47.7,30.03,ENE,74,0.0,17.0,77,0.00,CLR,,0.00,WeatherDisplay:10.37,2013-12-03 15:30:00,
2013-12-03 10:35:00,55.2,48.1,30.03,ENE,74,0.0,17.0,77,0.00,CLR,,0.00,WeatherDisplay:10.37,2013-12-03 15:35:00,
2013-12-03 10:40:00,55.7,48.6,30.03,ENE,74,0.0,17.0,77,0.00,CLR,,0.00,WeatherDisplay:10.37,2013-12-03 15:40:00,
2013-12-03 10:45:00,56.1,49.0,30.06,ENE,74,0.0,17.0,77,0.00,CLR,,0.00,WeatherDisplay:10.37,2013-12-03 15:45:00,
2013-12-03 10:50:00,56.7,49.2,30.06,ENE,74,0.0,17.0,76,0.00,CLR,,0.00,WeatherDisplay:10.37,2013-12-03 15:50:00,
2013-12-03 10:55:00,57.2,49.7,30.06,ENE,74,0.0,17.0,76,0.00,CLR,,0.00,WeatherDisplay:10.37,2013-12-03 15:55:00,
2013-12-03 11:00:00,57.4,49.5,30.12,ENE,74,0.0,17.0,75,0.00,CLR,,0.00,WeatherDisplay:10.37,2013-12-03 16:00:00,
2013-12-03 11:05:00,57.7,49.5,30.12,ENE,74,0.0,17.0,74,0.00,CLR,,0.00,WeatherDisplay:10.37,2013-12-03 16:05:00,
2013-12-03 11:10:00,57.7,49.5,30.12,ENE,74,0.0,17.0,74,0.00,CLR,,0.00,WeatherDisplay:10.37,2013-12-03 16:10:00,
2013-12-03 11:15:00,57.9,49.3,30.15,ENE,74,0.0,17.0,73,0.00,CLR,,0.00,WeatherDisplay:10.37,2013-12-03 16:15:00,
2013-12-03 11:20:00,58.1,49.1,30.15,ENE,74,0.0,17.0,72,0.00,CLR,,0.00,WeatherDisplay:10.37,2013-12-03 16:20:00,
2013-12-03 11:25:00,58.2,49.3,30.15,ENE,74,0.0,17.0,72,0.00,CLR,,0.00,WeatherDisplay:10.37,2013-12-03 16:25:00,
2013-12-03 11:30:00,58.5,49.1,30.15,ENE,74,0.0,17.0,71,0.00,CLR,,0.00,WeatherDisplay:10.37,2013-12-03 16:30:00,
2013-12-03 11:35:00,58.6,49.2,30.15,ENE,74,0.0,17.0,71,0.00,CLR,,0.00,WeatherDisplay:10.37,2013-12-03 16:35:00,
2013-12-03 11:40:00,58.8,49.1,30.15,ENE,74,0.0,17.0,70,0.00,CLR,,0.00,WeatherDisplay:10.37,2013-12-03 16:40:00,
2013-12-03 11:45:00,59.0,49.2,30.09,ENE,74,0.0,17.0,70,0.00,CLR,,0.00,WeatherDisplay:10.37,2013-12-03 16:45:00,
2013-12-03 11:50:00,59.3,49.1,30.09,ENE,74,0.0,17.0,69,0.00,CLR,,0.00,WeatherDisplay:10.37,2013-12-03 16:50:00,
2013-12-03 11:55:00,59.5,49.0,30.09,ENE,74,0.0,17.0,68,0.00,CLR,,0.00,WeatherDisplay:10.37,2013-12-03 16:55:00,
2013-12-03 12:00:00,59.7,48.7,30.03,ENE,74,0.0,17.0,67,0.00,CLR,,0.00,WeatherDisplay:10.37,2013-12-03 17:00:00,
2013-12-03 12:05:00,59.8,48.4,30.03,ENE,74,0.0,17.0,66,0.00,CLR,,0.00,WeatherDisplay:10.37,2013-12-03 17:05:00,
2013-12-03 12:10:00,59.9,47.7,30.03,ENE,74,0.0,17.0,64,0.00,CLR,,0.00,WeatherDisplay:10.37,2013-12-03 17:10:00,
2013-12-03 12:15:00,59.9,47.7,30.00,ENE,74,0.0,17.0,64,0.00,CLR,,0.00,WeatherDisplay:10.37,2013-12-03 17:15:00,
2013-12-03 12:20:00,60.1,47.4,30.00,ENE,74,0.0,17.0,63,0.00,CLR,,0.00,WeatherDisplay:10.37,2013-12-03 17:20:00,
2013-12-03 12:25:00,60.3,46.8,30.00,ENE,74,0.0,17.0,61,0.00,CLR,,0.00,WeatherDisplay:10.37,2013-12-03 17:25:00,
2013-12-03 12:30:00,60.7,47.2,30.03,ENE,74,0.0,17.0,61,0.00,CLR,,0.00,WeatherDisplay:10.37,2013-12-03 17:30:00,
2013-12-03 12:35:00,61.3,47.8,30.03,ENE,74,0.0,17.0,61,0.00,CLR,,0.00,WeatherDisplay:10.37,2013-12-03 17:35:00,
2013-12-03 12:40:00,61.8,47.3,30.03,ENE,74,0.0,17.0,59,0.00,CLR,,0.00,WeatherDisplay:10.37,2013-12-03 17:40:00,
2013-12-03 12:45:00,61.9,46.5,30.06,ENE,74,0.0,17.0,57,0.00,CLR,,0.00,WeatherDisplay:10.37,2013-12-03 17:45:00,
2013-12-03 12:50:00,61.9,46.5,30.06,ENE,74,0.0,17.0,57,0.00,CLR,,0.00,WeatherDisplay:10.37,2013-12-03 17:50:00,
2013-12-03 12:55:00,62.1,46.2,30.06,ENE,74,0.0,17.0,56,0.00,CLR,,0.00,WeatherDisplay:10.37,2013-12-03 17:55:00,
2013-12-03 13:00:00,62.2,46.3,30.09,ENE,74,0.0,17.0,56,0.00,CLR,,0.00,WeatherDisplay:10.37,2013-12-03 18:00:00,
2013-12-03 13:05:00,62.4,46.5,30.09,ENE,74,0.0,17.0,56,0.00,CLR,,0.00,WeatherDisplay:10.37,2013-12-03 18:05:00,
2013-12-03 13:10:00,62.4,46.0,30.09,ENE,74,0.0,17.0,55,0.00,CLR,,0.00,WeatherDisplay:10.37,2013-12-03 18:10:00,
2013-12-03 13:15:00,62.6,46.2,30.09,ENE,74,0.0,17.0,55,0.00,CLR,,0.00,WeatherDisplay:10.37,2013-12-03 18:15:00,
2013-12-03 13:20:00,62.6,45.7,30.09,ENE,74,0.0,17.0,54,0.00,CLR,,0.00,WeatherDisplay:10.37,2013-12-03 18:20:00,
2013-12-03 13:25:00,62.3,45.4,30.09,ENE,74,0.0,17.0,54,0.00,CLR,,0.00,WeatherDisplay:10.37,2013-12-03 18:25:00,
2013-12-03 13:30:00,62.1,45.2,30.09,ENE,74,0.0,17.0,54,0.00,CLR,,0.00,WeatherDisplay:10.37,2013-12-03 18:30:00,
2013-12-03 13:35:00,61.9,45.1,30.09,ENE,74,0.0,17.0,54,0.00,CLR,,0.00,WeatherDisplay:10.37,2013-12-03 18:35:00,
2013-12-03 13:40:00,61.9,45.0,30.09,ENE,74,0.0,17.0,54,0.00,CLR,,0.00,WeatherDisplay:10.37,2013-12-03 18:40:00,
2013-12-03 13:45:00,61.9,45.0,30.15,ENE,74,0.0,17.0,54,0.00,CLR,,0.00,WeatherDisplay:10.37,2013-12-03 18:45:00,
2013-12-03 13:50:00,61.9,45.0,30.15,ENE,74,0.0,17.0,54,0.00,CLR,,0.00,WeatherDisplay:10.37,2013-12-03 18:50:00,
2013-12-03 13:55:00,61.9,45.0,30.15,ENE,74,0.0,17.0,54,0.00,CLR,,0.00,WeatherDisplay:10.37,2013-12-03 18:55:00,
2013-12-03 14:00:00,61.9,44.6,30.12,ENE,74,0.0,17.0,53,0.00,CLR,,0.00,WeatherDisplay:10.37,2013-12-03 19:00:00,
2013-12-03 14:05:00,61.9,44.6,30.12,ENE,74,0.0,17.0,53,0.00,CLR,,0.00,WeatherDisplay:10.37,2013-12-03 19:05:00,
2013-12-03 14:10:00,61.7,44.4,30.12,ENE,74,0.0,17.0,53,0.00,CLR,,0.00,WeatherDisplay:10.37,2013-12-03 19:10:00,
2013-12-03 14:15:00,61.7,44.4,30.18,ENE,74,0.0,17.0,53,0.00,CLR,,0.00,WeatherDisplay:10.37,2013-12-03 19:15:00,
2013-12-03 14:20:00,61.5,44.7,30.18,ENE,74,0.0,17.0,54,0.00,CLR,,0.00,WeatherDisplay:10.37,2013-12-03 19:20:00,
2013-12-03 14:30:00,61.7,44.4,30.03,ENE,74,0.0,17.0,53,0.00,CLR,,0.00,WeatherDisplay:10.37,2013-12-03 19:30:00,
2013-12-03 14:35:00,61.7,44.4,30.03,ENE,74,0.0,17.0,53,0.00,CLR,,0.00,WeatherDisplay:10.37,2013-12-03 19:35:00,
2013-12-03 14:40:00,61.7,44.4,30.03,ENE,74,0.0,17.0,53,0.00,CLR,,0.00,WeatherDisplay:10.37,2013-12-03 19:40:00,
2013-12-03 14:45:00,61.7,44.4,30.03,ENE,74,0.0,17.0,53,0.00,CLR,,0.00,WeatherDisplay:10.37,2013-12-03 19:45:00,
2013-12-03 14:50:00,61.5,44.2,30.03,ENE,74,0.0,17.0,53,0.00,CLR,,0.00,WeatherDisplay:10.37,2013-12-03 19:50:00,
2013-12-03 14:55:00,61.5,44.2,30.03,ENE,74,0.0,17.0,53,0.00,CLR,,0.00,WeatherDisplay:10.37,2013-12-03 19:55:00,
2013-12-03 15:00:00,61.3,43.6,30.09,ENE,74,0.0,17.0,52,0.00,CLR,,0.00,WeatherDisplay:10.37,2013-12-03 20:00:00,
2013-12-03 15:05:00,61.3,43.6,30.09,ENE,74,0.0,17.0,52,0.00,CLR,,0.00,WeatherDisplay:10.37,2013-12-03 20:05:00,
2013-12-03 15:10:00,61.3,43.6,30.09,ENE,74,0.0,17.0,52,0.00,CLR,,0.00,WeatherDisplay:10.37,2013-12-03 20:10:00,
2013-12-03 15:15:00,61.2,43.4,30.09,ENE,74,0.0,17.0,52,0.00,CLR,,0.00,WeatherDisplay:10.37,2013-12-03 20:15:00,
2013-12-03 15:20:00,61.2,43.4,30.09,ENE,74,0.0,17.0,52,0.00,CLR,,0.00,WeatherDisplay:10.37,2013-12-03 20:20:00,
2013-12-03 15:25:00,61.1,43.3,30.09,ENE,74,0.0,17.0,52,0.00,CLR,,0.00,WeatherDisplay:10.37,2013-12-03 20:25:00,
2013-12-03 15:30:00,61.0,43.2,30.06,ENE,74,0.0,17.0,52,0.00,CLR,,0.00,WeatherDisplay:10.37,2013-12-03 20:30:00,
2013-12-03 15:35:00,61.0,43.2,30.06,ENE,74,0.0,17.0,52,0.00,CLR,,0.00,WeatherDisplay:10.37,2013-12-03 20:35:00,
2013-12-03 15:40:00,61.0,43.2,30.06,ENE,74,0.0,17.0,52,0.00,CLR,,0.00,WeatherDisplay:10.37,2013-12-03 20:40:00,
2013-12-03 15:45:00,61.0,43.2,30.06,ENE,74,0.0,17.0,52,0.00,CLR,,0.00,WeatherDisplay:10.37,2013-12-03 20:45:00,
2013-12-03 15:50:00,61.0,43.2,30.06,ENE,74,0.0,17.0,52,0.00,CLR,,0.00,WeatherDisplay:10.37,2013-12-03 20:50:00,
2013-12-03 15:55:00,61.0,43.2,30.06,ENE,74,0.0,17.0,52,0.00,CLR,,0.00,WeatherDisplay:10.37,2013-12-03 20:55:00,
2013-12-03 16:00:00,61.0,43.2,30.06,ENE,74,0.0,17.0,52,0.00,CLR,,0.00,WeatherDisplay:10.37,2013-12-03 21:00:00,
2013-12-03 16:05:00,61.0,43.2,30.06,ENE,74,0.0,17.0,52,0.00,CLR,,0.00,WeatherDisplay:10.37,2013-12-03 21:05:00,
2013-12-03 16:10:00,61.0,43.2,30.06,ENE,74,0.0,17.0,52,0.00,CLR,,0.00,WeatherDisplay:10.37,2013-12-03 21:10:00,
2013-12-03 16:15:00,61.0,43.2,30.06,ENE,74,0.0,17.0,52,0.00,CLR,,0.00,WeatherDisplay:10.37,2013-12-03 21:15:00,
2013-12-03 16:20:00,61.0,43.2,30.06,ENE,74,0.0,17.0,52,0.00,CLR,,0.00,WeatherDisplay:10.37,2013-12-03 21:20:00,
2013-12-03 16:25:00,61.0,43.2,30.06,ENE,74,0.0,17.0,52,0.00,CLR,,0.00,WeatherDisplay:10.37,2013-12-03 21:25:00,
2013-12-03 16:30:00,61.0,43.2,30.06,ENE,74,0.0,17.0,52,0.00,CLR,,0.00,WeatherDisplay:10.37,2013-12-03 21:30:00,
2013-12-03 16:35:00,61.0,43.2,30.06,ENE,74,0.0,17.0,52,0.00,CLR,,0.00,WeatherDisplay:10.37,2013-12-03 21:35:00,
2013-12-03 16:40:00,61.0,43.2,30.06,ENE,74,0.0,17.0,52,0.00,CLR,,0.00,WeatherDisplay:10.37,2013-12-03 21:40:00,
2013-12-03 16:45:00,61.0,43.2,30.06,ENE,74,0.0,17.0,52,0.00,CLR,,0.00,WeatherDisplay:10.37,2013-12-03 21:45:00,
2013-12-03 16:50:00,61.0,43.2,30.06,ENE,74,0.0,17.0,52,0.00,CLR,,0.00,WeatherDisplay:10.37,2013-12-03 21:50:00,
2013-12-03 16:55:00,61.0,43.2,30.06,ENE,74,0.0,17.0,52,0.00,CLR,,0.00,WeatherDisplay:10.37,2013-12-03 21:55:00,
2013-12-03 17:00:00,61.0,43.2,30.06,ENE,74,0.0,17.0,52,0.00,CLR,,0.00,WeatherDisplay:10.37,2013-12-03 22:00:00,
2013-12-03 17:05:00,61.0,43.2,30.06,ENE,74,0.0,17.0,52,0.00,CLR,,0.00,WeatherDisplay:10.37,2013-12-03 22:05:00,
2013-12-03 17:10:00,61.0,43.2,30.06,ENE,74,0.0,17.0,52,0.00,CLR,,0.00,WeatherDisplay:10.37,2013-12-03 22:10:00,
2013-12-03 17:15:00,61.0,43.2,30.06,ENE,74,0.0,17.0,52,0.00,CLR,,0.00,WeatherDisplay:10.37,2013-12-03 22:15:00,
2013-12-03 17:20:00,61.0,43.2,30.06,ENE,74,0.0,17.0,52,0.00,CLR,,0.00,WeatherDisplay:10.37,2013-12-03 22:20:00,
2013-12-03 17:25:00,61.0,43.2,30.06,ENE,74,0.0,17.0,52,0.00,CLR,,0.00,WeatherDisplay:10.37,2013-12-03 22:25:00,
2013-12-03 17:30:00,61.0,43.2,30.06,ENE,74,0.0,17.0,52,0.00,CLR,,0.00,WeatherDisplay:10.37,2013-12-03 22:30:00,
2013-12-03 17:35:00,61.0,43.2,30.06,ENE,74,0.0,17.0,52,0.00,CLR,,0.00,WeatherDisplay:10.37,2013-12-03 22:35:00,
2013-12-03 17:40:00,61.0,43.2,30.06,ENE,74,0.0,17.0,52,0.00,CLR,,0.00,WeatherDisplay:10.37,2013-12-03 22:40:00,
2013-12-03 17:45:00,61.0,43.2,30.06,ENE,74,0.0,17.0,52,0.00,CLR,,0.00,WeatherDisplay:10.37,2013-12-03 22:45:00,
2013-12-03 17:50:00,61.0,43.2,30.06,ENE,74,0.0,17.0,52,0.00,CLR,,0.00,WeatherDisplay:10.37,2013-12-03 22:50:00,
2013-12-03 17:55:00,61.0,43.2,30.06,ENE,74,0.0,17.0,52,0.00,CLR,,0.00,WeatherDisplay:10.37,2013-12-03 22:55:00,
2013-12-03 18:00:00,61.0,43.2,30.06,ENE,74,0.0,17.0,52,0.00,CLR,,0.00,WeatherDisplay:10.37,2013-12-03 23:00:00,
2013-12-03 18:05:00,61.0,43.2,30.06,ENE,74,0.0,17.0,52,0.00,CLR,,0.00,WeatherDisplay:10.37,2013-12-03 23:05:00,
2013-12-03 18:10:00,61.0,43.2,30.06,ENE,74,0.0,17.0,52,0.00,CLR,,0.00,WeatherDisplay:10.37,2013-12-03 23:10:00,
2013-12-03 18:20:00,61.0,43.2,30.06,ENE,74,0.0,17.0,52,0.00,CLR,,0.00,WeatherDisplay:10.37,2013-12-03 23:20:00,
2013-12-03 18:25:00,61.0,43.2,30.06,ENE,74,0.0,17.0,52,0.00,CLR,,0.00,WeatherDisplay:10.37,2013-12-03 23:25:00,
2013-12-03 18:30:00,61.0,43.2,30.06,ENE,74,0.0,17.0,52,0.00,CLR,,0.00,WeatherDisplay:10.37,2013-12-03 23:30:00,
2013-12-03 18:35:00,61.0,43.2,30.06,ENE,74,0.0,17.0,52,0.00,CLR,,0.00,WeatherDisplay:10.37,2013-12-03 23:35:00,
2013-12-03 18:40:00,61.0,43.2,30.06,ENE,74,0.0,17.0,52,0.00,CLR,,0.00,WeatherDisplay:10.37,2013-12-03 23:40:00,
2013-12-03 18:45:00,61.0,43.2,30.09,ENE,74,0.0,17.0,52,0.00,CLR,,0.00,WeatherDisplay:10.37,2013-12-03 23:45:00,
2013-12-03 18:50:00,61.0,43.2,30.09,ENE,74,0.0,17.0,52,0.00,CLR,,0.00,WeatherDisplay:10.37,2013-12-03 23:50:00,
2013-12-03 18:55:00,61.0,43.2,30.09,ENE,74,0.0,17.0,52,0.00,CLR,,0.00,WeatherDisplay:10.37,2013-12-03 23:55:00,
2013-12-03 19:00:00,61.0,43.2,30.09,ENE,74,0.0,17.0,52,0.00,CLR,,0.00,WeatherDisplay:10.37,2013-12-04 00:00:00,
2013-12-03 19:05:00,61.0,43.2,30.09,ENE,74,0.0,17.0,52,0.00,CLR,,0.00,WeatherDisplay:10.37,2013-12-04 00:05:00,
2013-12-03 19:10:00,61.0,43.2,30.09,ENE,74,0.0,17.0,52,0.00,CLR,,0.00,WeatherDisplay:10.37,2013-12-04 00:10:00,
2013-12-03 19:15:00,61.0,43.2,30.09,ENE,74,0.0,17.0,52,0.00,CLR,,0.00,WeatherDisplay:10.37,2013-12-04 00:15:00,
2013-12-03 19:20:00,61.0,43.2,30.09,ENE,74,0.0,17.0,52,0.00,CLR,,0.00,WeatherDisplay:10.37,2013-12-04 00:20:00,
2013-12-03 19:25:00,61.0,43.2,30.09,ENE,74,0.0,17.0,52,0.00,CLR,,0.00,WeatherDisplay:10.37,2013-12-04 00:25:00,
2013-12-03 19:30:00,61.0,43.2,30.09,ENE,74,0.0,17.0,52,0.00,CLR,,0.00,WeatherDisplay:10.37,2013-12-04 00:30:00,
2013-12-03 19:35:00,61.0,43.2,30.09,ENE,74,0.0,17.0,52,0.00,CLR,,0.00,WeatherDisplay:10.37,2013-12-04 00:35:00,
2013-12-03 19:40:00,61.0,43.2,30.09,ENE,74,0.0,17.0,52,0.00,CLR,,0.00,WeatherDisplay:10.37,2013-12-04 00:40:00,
2013-12-03 19:45:00,61.0,43.2,30.09,ENE,74,0.0,17.0,52,0.00,CLR,,0.00,WeatherDisplay:10.37,2013-12-04 00:45:00,
2013-12-03 19:50:00,61.0,43.2,30.09,ENE,74,0.0,17.0,52,0.00,CLR,,0.00,WeatherDisplay:10.37,2013-12-04 00:50:00,
2013-12-03 19:55:00,61.0,43.2,30.09,ENE,74,0.0,17.0,52,0.00,CLR,,0.00,WeatherDisplay:10.37,2013-12-04 00:55:00,
2013-12-03 20:00:00,61.0,43.2,30.09,ENE,74,0.0,17.0,52,0.00,CLR,,0.00,WeatherDisplay:10.37,2013-12-04 01:00:00,
2013-12-03 20:05:00,61.0,43.2,30.09,ENE,74,0.0,17.0,52,0.00,CLR,,0.00,WeatherDisplay:10.37,2013-12-04 01:05:00,
2013-12-03 20:10:00,61.0,43.2,30.09,ENE,74,0.0,17.0,52,0.00,CLR,,0.00,WeatherDisplay:10.37,2013-12-04 01:10:00,
2013-12-03 20:15:00,61.0,43.2,30.09,ENE,74,0.0,17.0,52,0.00,CLR,,0.00,WeatherDisplay:10.37,2013-12-04 01:15:00,
2013-12-03 20:20:00,61.0,43.2,30.09,ENE,74,0.0,17.0,52,0.00,CLR,,0.00,WeatherDisplay:10.37,2013-12-04 01:20:00,
2013-12-03 20:25:00,61.0,43.2,30.09,ENE,74,0.0,17.0,52,0.00,CLR,,0.00,WeatherDisplay:10.37,2013-12-04 01:25:00,
2013-12-03 20:30:00,61.0,43.2,30.09,ENE,74,0.0,17.0,52,0.00,CLR,,0.00,WeatherDisplay:10.37,2013-12-04 01:30:00,
2013-12-03 20:35:00,61.0,43.2,30.09,ENE,74,0.0,17.0,52,0.00,CLR,,0.00,WeatherDisplay:10.37,2013-12-04 01:35:00,
2013-12-03 20:40:00,61.0,43.2,30.09,ENE,74,0.0,17.0,52,0.00,CLR,,0.00,WeatherDisplay:10.37,2013-12-04 01:40:00,
2013-12-03 20:45:00,61.0,43.2,30.09,ENE,74,0.0,17.0,52,0.00,CLR,,0.00,WeatherDisplay:10.37,2013-12-04 01:45:00,
2013-12-03 20:50:00,61.0,43.2,30.09,ENE,74,0.0,17.0,52,0.00,CLR,,0.00,WeatherDisplay:10.37,2013-12-04 01:50:00,
2013-12-03 20:55:00,61.0,43.2,30.09,ENE,74,0.0,17.0,52,0.00,CLR,,0.00,WeatherDisplay:10.37,2013-12-04 01:55:00,
2013-12-03 21:00:00,61.0,43.2,30.09,ENE,74,0.0,17.0,52,0.00,CLR,,0.00,WeatherDisplay:10.37,2013-12-04 02:00:00,
2013-12-03 21:05:00,61.0,43.2,30.09,ENE,74,0.0,17.0,52,0.00,CLR,,0.00,WeatherDisplay:10.37,2013-12-04 02:05:00,
2013-12-03 21:10:00,61.0,43.2,30.09,ENE,74,0.0,17.0,52,0.00,CLR,,0.00,WeatherDisplay:10.37,2013-12-04 02:10:00,
2013-12-03 21:15:00,61.0,43.2,30.09,ENE,74,0.0,17.0,52,0.00,CLR,,0.00,WeatherDisplay:10.37,2013-12-04 02:15:00,
2013-12-03 21:20:00,61.0,43.2,30.09,ENE,74,0.0,17.0,52,0.00,CLR,,0.00,WeatherDisplay:10.37,2013-12-04 02:20:00,
2013-12-03 21:25:00,61.0,43.2,30.09,ENE,74,0.0,17.0,52,0.00,CLR,,0.00,WeatherDisplay:10.37,2013-12-04 02:25:00,
2013-12-03 21:30:00,61.0,43.2,30.09,ENE,74,0.0,17.0,52,0.00,CLR,,0.00,WeatherDisplay:10.37,2013-12-04 02:30:00,
2013-12-03 21:35:00,61.0,43.2,30.09,ENE,74,0.0,17.0,52,0.00,CLR,,0.00,WeatherDisplay:10.37,2013-12-04 02:35:00,
2013-12-03 21:40:00,61.0,43.2,30.09,ENE,74,0.0,17.0,52,0.00,CLR,,0.00,WeatherDisplay:10.37,2013-12-04 02:40:00,
2013-12-03 21:45:00,61.0,43.2,30.09,ENE,74,0.0,17.0,52,0.00,CLR,,0.00,WeatherDisplay:10.37,2013-12-04 02:45:00,
2013-12-03 21:50:00,61.0,43.2,30.09,ENE,74,0.0,17.0,52,0.00,CLR,,0.00,WeatherDisplay:10.37,2013-12-04 02:50:00,
2013-12-03 21:55:00,61.0,43.2,30.09,ENE,74,0.0,17.0,52,0.00,CLR,,0.00,WeatherDisplay:10.37,2013-12-04 02:55:00,
2013-12-03 22:00:00,61.0,43.2,30.09,ENE,74,0.0,17.0,52,0.00,CLR,,0.00,WeatherDisplay:10.37,2013-12-04 03:00:00,
2013-12-03 22:05:00,61.0,43.2,30.09,ENE,74,0.0,17.0,52,0.00,CLR,,0.00,WeatherDisplay:10.37,2013-12-04 03:05:00,
2013-12-03 22:10:00,61.0,43.2,30.09,ENE,74,0.0,17.0,52,0.00,CLR,,0.00,WeatherDisplay:10.37,2013-12-04 03:10:00,
2013-12-03 22:15:00,61.0,43.2,30.09,ENE,74,0.0,17.0,52,0.00,CLR,,0.00,WeatherDisplay:10.37,2013-12-04 03:15:00,
2013-12-03 22:20:00,61.0,43.2,30.09,ENE,74,0.0,17.0,52,0.00,CLR,,0.00,WeatherDisplay:10.37,2013-12-04 03:20:00,
2013-12-03 22:25:00,61.0,43.2,30.09,ENE,74,0.0,17.0,52,0.00,CLR,,0.00,WeatherDisplay:10.37,2013-12-04 03:25:00,
2013-12-03 22:30:00,61.0,43.2,30.09,ENE,74,0.0,17.0,52,0.00,CLR,,0.00,WeatherDisplay:10.37,2013-12-04 03:30:00,
2013-12-03 22:35:00,61.0,43.2,30.09,ENE,74,0.0,17.0,52,0.00,CLR,,0.00,WeatherDisplay:10.37,2013-12-04 03:35:00,
2013-12-03 22:40:00,61.0,43.2,30.09,ENE,74,0.0,17.0,52,0.00,CLR,,0.00,WeatherDisplay:10.37,2013-12-04 03:40:00,
2013-12-03 22:45:00,61.0,43.2,30.09,ENE,74,0.0,17.0,52,0.00,CLR,,0.00,WeatherDisplay:10.37,2013-12-04 03:45:00,
2013-12-03 22:50:00,61.0,43.2,30.09,ENE,74,0.0,17.0,52,0.00,CLR,,0.00,WeatherDisplay:10.37,2013-12-04 03:50:00,
2013-12-03 22:55:00,61.0,43.2,30.09,ENE,74,0.0,17.0,52,0.00,CLR,,0.00,WeatherDisplay:10.37,2013-12-04 03:55:00,
2013-12-03 23:00:00,61.0,43.2,30.09,ENE,74,0.0,17.0,52,0.00,CLR,,0.00,WeatherDisplay:10.37,2013-12-04 04:00:00,
2013-12-03 23:05:00,61.0,43.2,30.09,ENE,74,0.0,17.0,52,0.00,CLR,,0.00,WeatherDisplay:10.37,2013-12-04 04:05:00,
2013-12-03 23:10:00,61.0,43.2,30.09,ENE,74,0.0,17.0,52,0.00,CLR,,0.00,WeatherDisplay:10.37,2013-12-04 04:10:00,
2013-12-03 23:20:00,61.0,43.2,30.09,ENE,74,0.0,17.0,52,0.00,CLR,,0.00,WeatherDisplay:10.37,2013-12-04 04:20:00,
2013-12-03 23:25:00,61.0,43.2,30.09,ENE,74,0.0,17.0,52,0.00,CLR,,0.00,WeatherDisplay:10.37,2013-12-04 04:25:00,
2013-12-03 23:30:00,61.0,43.2,30.09,ENE,74,0.0,17.0,52,0.00,CLR,,0.00,WeatherDisplay:10.37,2013-12-04 04:30:00,
2013-12-03 23:40:00,61.0,43.2,30.09,ENE,74,0.0,17.0,52,0.00,CLR,,0.00,WeatherDisplay:10.37,2013-12-04 04:40:00,
2013-12-03 23:45:00,61.0,43.2,30.09,ENE,74,0.0,17.0,52,0.00,CLR,,0.00,WeatherDisplay:10.37,2013-12-04 04:45:00,
2013-12-03 23:50:00,61.0,43.2,30.09,ENE,74,0.0,17.0,52,0.00,CLR,,0.00,WeatherDisplay:10.37,2013-12-04 04:50:00,
2013-12-03 23:55:00,61.0,43.2,30.09,ENE,74,0.0,17.0,52,0.00,CLR,,0.00,WeatherDisplay:10.37,2013-12-04 04:55:00,